Flight Track Log - Related Links

Times and Time Zones

All times are in EDT time to prevent confusion due to time zone crossing. See the UPS1337 flight status page for this flight to view local times or setup timezone preferences in your user account.

Time Position Orientation Groundspeed Altitude Reporting Facility
EDT Latitude Longitude Course Direction KTS MPH feet Rate Location/Type
Fri 09:46:39 PM 27.9000 -82.6833 North 159 183 600  Level Tampa TRACON
Fri 09:47:39 PM 27.8500 -82.7000 196° South 226 260 3,000 3,115 Climbing Tampa TRACON
Fri 09:49:15 PM 27.9058 -82.7753 310° West 238 274 8,700 3,308 Climbing Jacksonville Center
Fri 09:50:15 PM 27.9914 -82.7564 11° North 242 278 11,600 2,653 Climbing Jacksonville Center
Fri 09:52:00 PM 28.6716 -82.6333 North  Level FlightAware Approximate
Fri 09:55:44 PM 28.6612 -82.6988 North 460 529 25,900  Level FlightAware ADS-B
Fri 09:58:44 PM 29.0449 -82.6690 North 463 533 32,000 1,991 Climbing FlightAware ADS-B
Fri 09:59:30 PM 29.1468 -82.6610 North 461 531 33,400 1,429 Climbing FlightAware ADS-B
Fri 10:00:08 PM 29.2219 -82.6552 North 460 529 34,000 346 Climbing FlightAware ADS-B
Fri 10:01:14 PM 29.3581 -82.6425 North 459 528 34,000  Level Jacksonville Center
Fri 10:02:15 PM 29.4814 -82.6325 North 459 528 34,000 496 Level Jacksonville Center
Fri 10:03:15 PM 29.6086 -82.6225 North 454 522 35,000 500 Climbing Jacksonville Center
Fri 10:04:15 PM 29.7317 -82.6128 North 449 517 35,000 -50 Level Jacksonville Center
Fri 10:05:15 PM 29.8422 -82.6053 North 444 511 34,900  Descending Jacksonville Center
Fri 10:06:14 PM 29.9633 -82.5953 North 439 505 35,000 50 Climbing Jacksonville Center
Fri 10:07:14 PM 30.0992 -82.5878 North 439 505 35,000  Level Jacksonville Center
Fri 10:08:14 PM 30.2222 -82.5800 North 439 505 35,000  Level Jacksonville Center
Fri 10:09:14 PM 30.3433 -82.5678 North 439 505 35,000  Level Jacksonville Center
Fri 10:10:14 PM 30.4664 -82.5575 North 439 505 35,000 -50 Level Jacksonville Center
Fri 10:11:14 PM 30.5875 -82.5233 14° North 439 505 34,900  Descending Jacksonville Center
Fri 10:12:14 PM 30.7086 -82.4747 19° North 449 517 35,000 50 Climbing Jacksonville Center
Fri 10:13:14 PM 30.8294 -82.4281 18° North 459 528 35,000  Level Jacksonville Center
Fri 10:14:14 PM 30.9481 -82.3597 26° Northeast 459 528 35,000 -50 Level Jacksonville Center
Fri 10:15:14 PM 31.0606 -82.2958 26° Northeast 459 528 34,900 -50 Descending Jacksonville Center
Fri 10:16:14 PM 31.1794 -82.2322 25° Northeast 459 528 34,900 50 Level Jacksonville Center
Fri 10:17:15 PM 31.2981 -82.1608 27° Northeast 459 528 35,000 50 Climbing Jacksonville Center
Fri 10:18:14 PM 31.4125 -82.0942 26° Northeast 461 531 35,000  Level Jacksonville Center
Fri 10:19:14 PM 31.5308 -82.0272 26° Northeast 461 531 35,000  Level Jacksonville Center
Fri 10:20:14 PM 31.6350 -81.9653 27° Northeast 461 531 35,000  Level Jacksonville Center
Fri 10:21:15 PM 31.7617 -81.8933 26° Northeast 461 531 35,000  Level Jacksonville Center
Fri 10:22:15 PM 31.8781 -81.8233 27° Northeast 461 531 35,000  Level Jacksonville Center
Fri 10:23:15 PM 31.9839 -81.7611 27° Northeast 461 531 35,000  Level Jacksonville Center
Fri 10:24:15 PM 32.1128 -81.6883 26° Northeast 468 539 35,000  Level Jacksonville Center
Fri 10:25:14 PM 32.2292 -81.6206 26° Northeast 462 532 35,000  Level Jacksonville Center
Fri 10:26:14 PM 32.3350 -81.5575 27° Northeast 462 532 35,000  Level Jacksonville Center
Fri 10:27:14 PM 32.4614 -81.4817 27° Northeast 462 532 35,000  Level Jacksonville Center
Fri 10:28:14 PM 32.5756 -81.4158 26° Northeast 462 532 35,000  Level Jacksonville Center
Fri 10:29:15 PM 32.6792 -81.3525 27° Northeast 462 532 35,000  Level Jacksonville Center
Fri 10:30:15 PM 32.7972 -81.2814 27° Northeast 462 532 35,000  Level Jacksonville Center
Fri 10:31:14 PM 32.9131 -81.2125 27° Northeast 462 532 35,000  Level Jacksonville Center
Fri 10:32:14 PM 33.0292 -81.1433 27° Northeast 462 532 35,000 -395 Level Jacksonville Center
Fri 10:38:04 PM 33.7237 -80.7199 27° Northeast 471 542 32,300 -522 Descending FlightAware ADS-B
Fri 10:38:45 PM 33.8034 -80.6710 27° Northeast 475 547 31,600 -930 Descending FlightAware ADS-B
Fri 10:39:15 PM 33.8628 -80.6346 27° Northeast 480 552 31,200 -571 Descending FlightAware ADS-B
Fri 10:39:48 PM 33.9272 -80.5951 27° Northeast 476 548 31,000 -156 Descending FlightAware ADS-B
Fri 10:40:32 PM 34.0145 -80.5412 27° Northeast 475 547 31,000  Level FlightAware ADS-B
Fri 10:41:00 PM 34.0705 -80.5179 North 448 516 31,000 -197 Level FlightAware ADS-B
Fri 10:41:33 PM 34.1387 -80.5066 North 445 512 30,800 -1,688 Descending FlightAware ADS-B
Fri 10:42:04 PM 34.2016 -80.4965 North 449 517 29,200 -2,656 Descending FlightAware ADS-B
Fri 10:42:34 PM 34.2635 -80.4888 North 443 510 28,100 -2,000 Descending FlightAware ADS-B
Fri 10:43:07 PM 34.3308 -80.4805 North 428 493 27,100 -1,671 Descending FlightAware ADS-B
Fri 10:44:54 PM 34.5344 -80.4584 11° North 407 468 24,200 -995 Descending FlightAware ADS-B
Fri 10:46:14 PM 34.6514 -80.3411 11° North 391 450 24,000 -96 Descending Jacksonville Center
Fri 10:46:59 PM 34.6928 -80.2422 63° Northeast 411 473 24,000  Level Washington Center
Fri 10:47:59 PM 34.7625 -80.1047 58° Northeast 446 513 24,000  Level Washington Center
Fri 10:48:59 PM 34.8397 -79.9975 49° Northeast 458 527 24,000  Level Washington Center
Fri 10:49:57 PM 34.9353 -79.8939 42° Northeast 458 527 24,000  Level Washington Center
Fri 10:50:57 PM 35.0328 -79.7900 41° Northeast 458 527 24,000  Level Washington Center
Fri 10:51:58 PM 35.1303 -79.6858 41° Northeast 458 527 24,000 -1,721 Level Washington Center
Fri 10:52:59 PM 35.2236 -79.5839 42° Northeast 453 521 20,500 -3,600 Descending Washington Center
Fri 10:53:58 PM 35.3325 -79.5078 30° Northeast 427 491 16,800 -3,470 Descending Washington Center
Fri 10:54:22 PM 35.3711 -79.4792 31° Northeast 387 445 15,700 -2,250 Descending Washington Center
Fri 10:54:46 PM 35.4094 -79.4556 27° Northeast 377 434 15,000 -1,135 Descending Washington Center
Fri 10:54:59 PM 35.4158 -79.4506 33° Northeast 391 450 15,000 -1,869 Level Washington Center
Fri 10:55:47 PM 35.4947 -79.3906 32° Northeast 355 409 13,100 -2,200 Descending Washington Center
Fri 10:55:59 PM 35.5078 -79.3811 30° Northeast 359 413 12,800 -1,690 Descending Washington Center
Fri 10:56:58 PM 35.5647 -79.2919 52° Northeast 347 399 11,100 -1,500 Descending Washington Center
Fri 10:57:47 PM 35.6133 -79.2022 56° Northeast 316 364 10,100 -1,119 Descending Washington Center
Fri 10:57:57 PM 35.6197 -79.1972 32° Northeast 341 392 10,000 -600 Descending Washington Center
Fri 10:59:00 PM 35.6585 -79.0727 45° Northeast  Level FlightAware Approximate
Fri 11:06:00 PM 35.8667 -78.7833 51° Northeast  Level FlightAware Approximate
Fri 11:07:00 PM 35.8776 -78.7875 51° Northeast  Level Estimated
Fri 11:08:00 PM 35.8776 -78.7875 51° Northeast  Level Estimated
Fri 11:09:00 PM 35.8776 -78.7875 51° Northeast  Level Estimated
Fri 11:10:00 PM 35.8776 -78.7875 51° Northeast  Level Estimated
Fri 11:11:00 PM 35.8776 -78.7875 51° Northeast  Level Estimated
Fri 11:12:00 PM 35.8776 -78.7875 51° Northeast  Level Estimated
Fri 11:13:00 PM 35.8776 -78.7875 51° Northeast  Level Estimated
Fri 11:14:00 PM 35.8776 -78.7875 51° Northeast  Level Estimated
Fri 11:15:00 PM 35.8776 -78.7875 51° Northeast  Level Estimated
Fri 11:16:00 PM 35.8776 -78.7875 51° Northeast  Level Estimated
Fri 11:17:00 PM 35.8776 -78.7875 51° Northeast  Level Estimated
Fri 11:18:00 PM 35.8776 -78.7875 51° Northeast  Level Estimated
Fri 11:19:00 PM 35.8776 -78.7875 51° Northeast  Level Estimated
Fri 11:20:00 PM 35.8776 -78.7875 51° Northeast  Level Estimated
Fri 11:21:00 PM 35.8776 -78.7875 51° Northeast  Level Estimated
Fri 11:22:00 PM 35.8776 -78.7875 51° Northeast  Level Estimated

Login

Don't have an account? Register now (free) for customized features, flight alerts, and more!